sensor_id;sensor_type;location;lat;lon;timestamp;P1;durP1;ratioP1;P2;durP2;ratioP2
41043;SDS011;51680;49.806;18.774;2023-07-13T00:02:22;4.78;;;1.92;;
41043;SDS011;51680;49.806;18.774;2023-07-13T00:05:25;6.47;;;2.47;;
41043;SDS011;51680;49.806;18.774;2023-07-13T00:08:29;7.18;;;2.90;;
41043;SDS011;51680;49.806;18.774;2023-07-13T00:11:32;5.57;;;3.00;;
41043;SDS011;51680;49.806;18.774;2023-07-13T00:14:34;5.18;;;2.88;;
41043;SDS011;51680;49.806;18.774;2023-07-13T00:17:36;8.57;;;3.42;;
41043;SDS011;51680;49.806;18.774;2023-07-13T00:20:40;5.00;;;2.78;;
41043;SDS011;51680;49.806;18.774;2023-07-13T00:23:43;4.40;;;2.78;;
41043;SDS011;51680;49.806;18.774;2023-07-13T00:26:45;11.30;;;4.18;;
41043;SDS011;51680;49.806;18.774;2023-07-13T00:29:46;13.98;;;5.40;;
41043;SDS011;51680;49.806;18.774;2023-07-13T00:32:48;13.13;;;6.03;;
41043;SDS011;51680;49.806;18.774;2023-07-13T00:35:51;12.55;;;4.60;;
41043;SDS011;51680;49.806;18.774;2023-07-13T00:38:53;12.30;;;5.50;;
41043;SDS011;51680;49.806;18.774;2023-07-13T00:41:54;9.07;;;4.50;;
41043;SDS011;51680;49.806;18.774;2023-07-13T00:45:07;7.45;;;3.70;;
41043;SDS011;51680;49.806;18.774;2023-07-13T00:48:26;10.40;;;4.30;;
41043;SDS011;51680;49.806;18.774;2023-07-13T00:51:32;10.15;;;4.93;;
41043;SDS011;51680;49.806;18.774;2023-07-13T00:54:41;9.73;;;4.30;;
41043;SDS011;51680;49.806;18.774;2023-07-13T00:57:46;9.50;;;4.55;;
41043;SDS011;51680;49.806;18.774;2023-07-13T01:00:48;8.50;;;4.20;;
41043;SDS011;51680;49.806;18.774;2023-07-13T01:03:51;6.43;;;2.47;;
41043;SDS011;51680;49.806;18.774;2023-07-13T01:06:55;6.75;;;2.47;;
41043;SDS011;51680;49.806;18.774;2023-07-13T01:09:58;4.97;;;2.80;;
41043;SDS011;51680;49.806;18.774;2023-07-13T01:12:59;4.93;;;2.17;;
41043;SDS011;51680;49.806;18.774;2023-07-13T01:16:04;4.88;;;2.40;;
41043;SDS011;51680;49.806;18.774;2023-07-13T01:19:16;6.60;;;2.28;;
41043;SDS011;51680;49.806;18.774;2023-07-13T01:22:31;4.65;;;2.30;;
41043;SDS011;51680;49.806;18.774;2023-07-13T01:25:33;4.93;;;2.40;;
41043;SDS011;51680;49.806;18.774;2023-07-13T01:28:37;4.55;;;2.00;;
41043;SDS011;51680;49.806;18.774;2023-07-13T01:31:42;16.00;;;2.92;;
41043;SDS011;51680;49.806;18.774;2023-07-13T01:34:44;6.90;;;2.28;;
41043;SDS011;51680;49.806;18.774;2023-07-13T01:37:48;3.95;;;2.22;;
41043;SDS011;51680;49.806;18.774;2023-07-13T01:40:50;4.20;;;2.25;;
41043;SDS011;51680;49.806;18.774;2023-07-13T01:43:52;4.68;;;2.30;;
41043;SDS011;51680;49.806;18.774;2023-07-13T01:47:13;5.32;;;2.60;;
41043;SDS011;51680;49.806;18.774;2023-07-13T01:50:14;9.63;;;2.80;;
41043;SDS011;51680;49.806;18.774;2023-07-13T01:53:18;7.05;;;2.30;;
41043;SDS011;51680;49.806;18.774;2023-07-13T01:56:19;4.15;;;2.22;;
41043;SDS011;51680;49.806;18.774;2023-07-13T01:59:21;7.32;;;3.83;;
41043;SDS011;51680;49.806;18.774;2023-07-13T02:02:23;11.77;;;3.67;;
41043;SDS011;51680;49.806;18.774;2023-07-13T02:05:24;6.60;;;2.83;;
41043;SDS011;51680;49.806;18.774;2023-07-13T02:08:28;6.20;;;2.95;;
41043;SDS011;51680;49.806;18.774;2023-07-13T02:11:29;5.97;;;3.07;;
41043;SDS011;51680;49.806;18.774;2023-07-13T02:14:33;7.13;;;2.80;;
41043;SDS011;51680;49.806;18.774;2023-07-13T02:17:35;5.00;;;2.47;;
41043;SDS011;51680;49.806;18.774;2023-07-13T02:20:38;5.32;;;2.40;;
41043;SDS011;51680;49.806;18.774;2023-07-13T02:23:41;5.18;;;2.53;;
41043;SDS011;51680;49.806;18.774;2023-07-13T02:26:43;4.77;;;2.93;;
41043;SDS011;51680;49.806;18.774;2023-07-13T02:29:45;6.88;;;3.17;;
41043;SDS011;51680;49.806;18.774;2023-07-13T02:32:47;5.32;;;2.45;;
41043;SDS011;51680;49.806;18.774;2023-07-13T02:35:49;6.03;;;2.65;;
41043;SDS011;51680;49.806;18.774;2023-07-13T02:38:52;6.82;;;2.60;;
41043;SDS011;51680;49.806;18.774;2023-07-13T02:41:53;8.23;;;2.83;;
41043;SDS011;51680;49.806;18.774;2023-07-13T02:44:55;4.13;;;2.20;;
41043;SDS011;51680;49.806;18.774;2023-07-13T02:47:58;5.57;;;2.10;;
41043;SDS011;51680;49.806;18.774;2023-07-13T02:50:59;4.13;;;2.53;;
41043;SDS011;51680;49.806;18.774;2023-07-13T02:54:03;6.30;;;2.22;;
41043;SDS011;51680;49.806;18.774;2023-07-13T02:57:06;4.43;;;2.00;;
41043;SDS011;51680;49.806;18.774;2023-07-13T03:00:08;9.60;;;2.22;;
41043;SDS011;51680;49.806;18.774;2023-07-13T03:03:10;5.88;;;2.50;;
41043;SDS011;51680;49.806;18.774;2023-07-13T03:06:13;7.53;;;2.40;;
41043;SDS011;51680;49.806;18.774;2023-07-13T03:09:22;6.38;;;2.83;;
41043;SDS011;51680;49.806;18.774;2023-07-13T03:12:26;3.92;;;2.60;;
41043;SDS011;51680;49.806;18.774;2023-07-13T03:15:28;7.13;;;2.58;;
41043;SDS011;51680;49.806;18.774;2023-07-13T03:18:32;7.18;;;2.80;;
41043;SDS011;51680;49.806;18.774;2023-07-13T03:21:38;6.57;;;2.63;;
41043;SDS011;51680;49.806;18.774;2023-07-13T03:24:41;6.28;;;2.85;;
41043;SDS011;51680;49.806;18.774;2023-07-13T03:27:43;7.45;;;3.38;;
41043;SDS011;51680;49.806;18.774;2023-07-13T03:30:45;11.38;;;3.55;;
41043;SDS011;51680;49.806;18.774;2023-07-13T03:33:47;8.00;;;3.13;;
41043;SDS011;51680;49.806;18.774;2023-07-13T03:36:50;8.63;;;3.20;;
41043;SDS011;51680;49.806;18.774;2023-07-13T03:39:56;5.80;;;2.58;;
41043;SDS011;51680;49.806;18.774;2023-07-13T03:43:00;5.47;;;2.40;;
41043;SDS011;51680;49.806;18.774;2023-07-13T03:46:03;6.63;;;2.55;;
41043;SDS011;51680;49.806;18.774;2023-07-13T03:49:05;4.97;;;2.28;;
41043;SDS011;51680;49.806;18.774;2023-07-13T03:52:07;7.07;;;2.75;;
41043;SDS011;51680;49.806;18.774;2023-07-13T03:55:10;6.28;;;2.60;;
41043;SDS011;51680;49.806;18.774;2023-07-13T03:58:26;5.15;;;2.33;;
41043;SDS011;51680;49.806;18.774;2023-07-13T04:01:37;6.20;;;2.70;;
41043;SDS011;51680;49.806;18.774;2023-07-13T04:04:39;5.13;;;2.42;;
41043;SDS011;51680;49.806;18.774;2023-07-13T04:07:41;6.30;;;2.20;;
41043;SDS011;51680;49.806;18.774;2023-07-13T04:10:44;5.35;;;3.10;;
41043;SDS011;51680;49.806;18.774;2023-07-13T04:13:46;5.23;;;2.90;;
41043;SDS011;51680;49.806;18.774;2023-07-13T04:16:48;7.25;;;2.90;;
41043;SDS011;51680;49.806;18.774;2023-07-13T04:19:50;8.75;;;2.63;;
41043;SDS011;51680;49.806;18.774;2023-07-13T04:22:52;5.35;;;2.60;;
41043;SDS011;51680;49.806;18.774;2023-07-13T04:25:55;9.68;;;3.38;;
41043;SDS011;51680;49.806;18.774;2023-07-13T04:28:57;7.13;;;3.13;;
41043;SDS011;51680;49.806;18.774;2023-07-13T04:31:59;6.03;;;3.42;;
41043;SDS011;51680;49.806;18.774;2023-07-13T04:35:00;7.55;;;2.83;;
41043;SDS011;51680;49.806;18.774;2023-07-13T04:38:02;6.85;;;3.05;;
41043;SDS011;51680;49.806;18.774;2023-07-13T04:41:06;6.22;;;3.17;;
41043;SDS011;51680;49.806;18.774;2023-07-13T04:44:09;7.35;;;3.10;;
41043;SDS011;51680;49.806;18.774;2023-07-13T04:47:11;4.72;;;3.08;;
41043;SDS011;51680;49.806;18.774;2023-07-13T04:50:13;11.98;;;3.00;;
41043;SDS011;51680;49.806;18.774;2023-07-13T04:53:20;8.38;;;3.20;;
41043;SDS011;51680;49.806;18.774;2023-07-13T04:56:23;9.00;;;3.30;;
41043;SDS011;51680;49.806;18.774;2023-07-13T04:59:24;8.23;;;3.27;;
41043;SDS011;51680;49.806;18.774;2023-07-13T05:02:26;7.50;;;3.13;;
41043;SDS011;51680;49.806;18.774;2023-07-13T05:05:28;5.68;;;3.30;;
41043;SDS011;51680;49.806;18.774;2023-07-13T05:08:30;9.25;;;3.20;;
41043;SDS011;51680;49.806;18.774;2023-07-13T05:11:33;7.03;;;3.75;;
41043;SDS011;51680;49.806;18.774;2023-07-13T05:14:35;9.73;;;4.03;;
41043;SDS011;51680;49.806;18.774;2023-07-13T05:17:37;9.00;;;3.80;;
41043;SDS011;51680;49.806;18.774;2023-07-13T05:20:39;9.50;;;2.90;;
41043;SDS011;51680;49.806;18.774;2023-07-13T05:23:41;6.72;;;3.15;;
41043;SDS011;51680;49.806;18.774;2023-07-13T05:26:44;7.07;;;2.90;;
41043;SDS011;51680;49.806;18.774;2023-07-13T05:29:46;9.18;;;3.40;;
41043;SDS011;51680;49.806;18.774;2023-07-13T05:32:47;5.03;;;2.90;;
41043;SDS011;51680;49.806;18.774;2023-07-13T05:35:49;11.13;;;3.40;;
41043;SDS011;51680;49.806;18.774;2023-07-13T05:38:51;9.95;;;3.00;;
41043;SDS011;51680;49.806;18.774;2023-07-13T05:41:54;6.38;;;2.90;;
41043;SDS011;51680;49.806;18.774;2023-07-13T05:44:56;8.20;;;3.00;;
41043;SDS011;51680;49.806;18.774;2023-07-13T05:47:57;8.27;;;3.05;;
41043;SDS011;51680;49.806;18.774;2023-07-13T05:51:00;6.88;;;3.25;;
41043;SDS011;51680;49.806;18.774;2023-07-13T05:54:02;5.32;;;2.60;;
41043;SDS011;51680;49.806;18.774;2023-07-13T05:57:06;5.45;;;2.47;;
41043;SDS011;51680;49.806;18.774;2023-07-13T06:00:08;5.80;;;2.67;;
41043;SDS011;51680;49.806;18.774;2023-07-13T06:03:14;8.57;;;2.83;;
41043;SDS011;51680;49.806;18.774;2023-07-13T06:06:16;5.05;;;2.28;;
41043;SDS011;51680;49.806;18.774;2023-07-13T06:09:18;7.18;;;2.60;;
41043;SDS011;51680;49.806;18.774;2023-07-13T06:12:21;7.97;;;2.97;;
41043;SDS011;51680;49.806;18.774;2023-07-13T06:15:23;8.48;;;3.13;;
41043;SDS011;51680;49.806;18.774;2023-07-13T06:18:25;7.00;;;2.70;;
41043;SDS011;51680;49.806;18.774;2023-07-13T06:21:26;6.90;;;3.30;;
41043;SDS011;51680;49.806;18.774;2023-07-13T06:24:28;6.00;;;3.25;;
41043;SDS011;51680;49.806;18.774;2023-07-13T06:27:31;6.82;;;2.92;;
41043;SDS011;51680;49.806;18.774;2023-07-13T06:30:33;6.70;;;3.33;;
41043;SDS011;51680;49.806;18.774;2023-07-13T06:33:35;8.27;;;2.90;;
41043;SDS011;51680;49.806;18.774;2023-07-13T06:36:37;5.38;;;3.38;;
41043;SDS011;51680;49.806;18.774;2023-07-13T06:39:39;8.20;;;2.80;;
41043;SDS011;51680;49.806;18.774;2023-07-13T06:42:42;7.07;;;3.22;;
41043;SDS011;51680;49.806;18.774;2023-07-13T06:45:44;10.15;;;3.35;;
41043;SDS011;51680;49.806;18.774;2023-07-13T06:48:49;8.45;;;3.45;;
41043;SDS011;51680;49.806;18.774;2023-07-13T06:51:51;11.68;;;3.20;;
41043;SDS011;51680;49.806;18.774;2023-07-13T06:54:52;7.32;;;3.35;;
41043;SDS011;51680;49.806;18.774;2023-07-13T06:57:55;6.82;;;3.28;;
41043;SDS011;51680;49.806;18.774;2023-07-13T07:00:57;9.20;;;3.43;;
41043;SDS011;51680;49.806;18.774;2023-07-13T07:03:59;5.18;;;3.10;;
41043;SDS011;51680;49.806;18.774;2023-07-13T07:07:00;8.95;;;4.03;;
41043;SDS011;51680;49.806;18.774;2023-07-13T07:10:02;9.88;;;3.67;;
41043;SDS011;51680;49.806;18.774;2023-07-13T07:13:06;7.53;;;4.10;;
41043;SDS011;51680;49.806;18.774;2023-07-13T07:16:08;11.40;;;3.97;;
41043;SDS011;51680;49.806;18.774;2023-07-13T07:19:10;8.70;;;4.72;;
41043;SDS011;51680;49.806;18.774;2023-07-13T07:22:12;13.52;;;4.95;;
41043;SDS011;51680;49.806;18.774;2023-07-13T07:25:13;11.52;;;4.70;;
41043;SDS011;51680;49.806;18.774;2023-07-13T07:28:17;12.18;;;4.80;;
41043;SDS011;51680;49.806;18.774;2023-07-13T07:31:19;13.23;;;4.70;;
41043;SDS011;51680;49.806;18.774;2023-07-13T07:34:21;9.98;;;4.20;;
41043;SDS011;51680;49.806;18.774;2023-07-13T07:37:23;9.45;;;4.43;;
41043;SDS011;51680;49.806;18.774;2023-07-13T07:40:25;14.50;;;5.13;;
41043;SDS011;51680;49.806;18.774;2023-07-13T07:43:28;8.98;;;4.55;;
41043;SDS011;51680;49.806;18.774;2023-07-13T07:46:31;11.25;;;5.28;;
41043;SDS011;51680;49.806;18.774;2023-07-13T07:49:33;8.07;;;5.13;;
41043;SDS011;51680;49.806;18.774;2023-07-13T07:52:34;13.43;;;5.25;;
41043;SDS011;51680;49.806;18.774;2023-07-13T07:55:36;9.50;;;5.20;;
41043;SDS011;51680;49.806;18.774;2023-07-13T07:58:40;14.25;;;5.15;;
41043;SDS011;51680;49.806;18.774;2023-07-13T08:01:41;15.23;;;5.63;;
41043;SDS011;51680;49.806;18.774;2023-07-13T08:04:43;9.23;;;5.00;;
41043;SDS011;51680;49.806;18.774;2023-07-13T08:07:45;10.77;;;4.72;;
41043;SDS011;51680;49.806;18.774;2023-07-13T08:10:47;10.90;;;4.63;;
41043;SDS011;51680;49.806;18.774;2023-07-13T08:13:50;12.32;;;4.97;;
41043;SDS011;51680;49.806;18.774;2023-07-13T08:16:52;9.70;;;4.57;;
41043;SDS011;51680;49.806;18.774;2023-07-13T08:19:54;8.57;;;4.30;;
41043;SDS011;51680;49.806;18.774;2023-07-13T08:22:55;9.02;;;4.93;;
41043;SDS011;51680;49.806;18.774;2023-07-13T08:25:57;8.55;;;4.05;;
41043;SDS011;51680;49.806;18.774;2023-07-13T08:29:02;8.32;;;5.00;;
41043;SDS011;51680;49.806;18.774;2023-07-13T08:32:05;7.65;;;4.20;;
41043;SDS011;51680;49.806;18.774;2023-07-13T08:35:09;9.32;;;4.38;;
41043;SDS011;51680;49.806;18.774;2023-07-13T08:38:11;7.82;;;4.43;;
41043;SDS011;51680;49.806;18.774;2023-07-13T08:41:31;7.20;;;4.20;;
41043;SDS011;51680;49.806;18.774;2023-07-13T08:44:38;11.38;;;4.72;;
41043;SDS011;51680;49.806;18.774;2023-07-13T08:47:49;12.50;;;5.85;;
41043;SDS011;51680;49.806;18.774;2023-07-13T08:50:55;14.15;;;6.18;;
41043;SDS011;51680;49.806;18.774;2023-07-13T08:54:01;12.95;;;6.60;;
41043;SDS011;51680;49.806;18.774;2023-07-13T08:57:10;13.50;;;7.30;;
41043;SDS011;51680;49.806;18.774;2023-07-13T09:00:16;14.43;;;6.72;;
41043;SDS011;51680;49.806;18.774;2023-07-13T09:03:19;14.10;;;6.78;;
41043;SDS011;51680;49.806;18.774;2023-07-13T09:06:27;12.30;;;7.15;;
41043;SDS011;51680;49.806;18.774;2023-07-13T09:09:35;14.32;;;7.28;;
41043;SDS011;51680;49.806;18.774;2023-07-13T09:12:51;13.35;;;6.55;;
41043;SDS011;51680;49.806;18.774;2023-07-13T09:16:02;14.80;;;7.20;;
41043;SDS011;51680;49.806;18.774;2023-07-13T09:19:25;15.35;;;7.57;;
41043;SDS011;51680;49.806;18.774;2023-07-13T09:22:33;17.50;;;8.50;;
41043;SDS011;51680;49.806;18.774;2023-07-13T09:25:38;16.27;;;8.63;;
41043;SDS011;51680;49.806;18.774;2023-07-13T09:28:44;16.92;;;8.90;;
41043;SDS011;51680;49.806;18.774;2023-07-13T09:31:52;14.85;;;8.82;;
41043;SDS011;51680;49.806;18.774;2023-07-13T09:34:56;12.00;;;7.80;;
41043;SDS011;51680;49.806;18.774;2023-07-13T09:37:59;17.77;;;8.25;;
41043;SDS011;51680;49.806;18.774;2023-07-13T09:41:14;11.32;;;7.18;;
41043;SDS011;51680;49.806;18.774;2023-07-13T09:44:27;14.88;;;7.30;;
41043;SDS011;51680;49.806;18.774;2023-07-13T09:47:33;11.57;;;6.00;;
41043;SDS011;51680;49.806;18.774;2023-07-13T09:50:40;9.23;;;4.80;;
41043;SDS011;51680;49.806;18.774;2023-07-13T09:53:42;5.88;;;3.97;;
41043;SDS011;51680;49.806;18.774;2023-07-13T09:56:44;5.30;;;3.30;;
41043;SDS011;51680;49.806;18.774;2023-07-13T09:59:47;4.97;;;3.42;;
41043;SDS011;51680;49.806;18.774;2023-07-13T10:02:59;6.82;;;3.40;;
41043;SDS011;51680;49.806;18.774;2023-07-13T10:06:09;5.00;;;3.50;;
41043;SDS011;51680;49.806;18.774;2023-07-13T10:09:15;5.70;;;3.75;;
41043;SDS011;51680;49.806;18.774;2023-07-13T10:12:17;6.93;;;3.60;;
41043;SDS011;51680;49.806;18.774;2023-07-13T10:15:20;7.10;;;4.18;;
41043;SDS011;51680;49.806;18.774;2023-07-13T10:18:27;8.15;;;3.78;;
41043;SDS011;51680;49.806;18.774;2023-07-13T10:21:34;6.00;;;4.15;;
41043;SDS011;51680;49.806;18.774;2023-07-13T10:24:37;6.45;;;4.25;;
41043;SDS011;51680;49.806;18.774;2023-07-13T10:27:40;6.13;;;4.45;;
41043;SDS011;51680;49.806;18.774;2023-07-13T10:30:42;8.55;;;4.90;;
41043;SDS011;51680;49.806;18.774;2023-07-13T10:33:49;10.98;;;4.45;;
41043;SDS011;51680;49.806;18.774;2023-07-13T10:36:51;8.75;;;4.20;;
41043;SDS011;51680;49.806;18.774;2023-07-13T10:39:54;7.05;;;4.32;;
41043;SDS011;51680;49.806;18.774;2023-07-13T10:46:00;7.05;;;3.97;;
41043;SDS011;51680;49.806;18.774;2023-07-13T10:49:05;6.17;;;3.90;;
41043;SDS011;51680;49.806;18.774;2023-07-13T10:55:58;6.88;;;4.05;;
41043;SDS011;51680;49.806;18.774;2023-07-13T10:59:01;6.50;;;3.70;;
41043;SDS011;51680;49.806;18.774;2023-07-13T11:02:13;7.68;;;3.80;;
41043;SDS011;51680;49.806;18.774;2023-07-13T11:05:28;6.75;;;3.30;;
41043;SDS011;51680;49.806;18.774;2023-07-13T11:08:32;6.60;;;3.22;;
41043;SDS011;51680;49.806;18.774;2023-07-13T11:11:37;4.97;;;3.13;;
41043;SDS011;51680;49.806;18.774;2023-07-13T11:14:44;10.02;;;3.40;;
41043;SDS011;51680;49.806;18.774;2023-07-13T11:18:11;6.38;;;3.42;;
41043;SDS011;51680;49.806;18.774;2023-07-13T11:21:25;7.88;;;2.75;;
41043;SDS011;51680;49.806;18.774;2023-07-13T11:24:50;4.90;;;2.88;;
41043;SDS011;51680;49.806;18.774;2023-07-13T11:28:06;4.35;;;2.58;;
41043;SDS011;51680;49.806;18.774;2023-07-13T11:31:19;4.00;;;2.50;;
41043;SDS011;51680;49.806;18.774;2023-07-13T11:34:25;7.68;;;2.80;;
41043;SDS011;51680;49.806;18.774;2023-07-13T11:37:32;5.72;;;2.72;;
41043;SDS011;51680;49.806;18.774;2023-07-13T11:40:33;9.73;;;2.95;;
41043;SDS011;51680;49.806;18.774;2023-07-13T11:43:36;6.88;;;2.80;;
41043;SDS011;51680;49.806;18.774;2023-07-13T11:46:38;7.00;;;2.85;;
41043;SDS011;51680;49.806;18.774;2023-07-13T11:49:41;10.20;;;2.80;;
41043;SDS011;51680;49.806;18.774;2023-07-13T11:52:46;8.02;;;2.92;;
41043;SDS011;51680;49.806;18.774;2023-07-13T11:55:50;5.18;;;2.70;;
41043;SDS011;51680;49.806;18.774;2023-07-13T11:58:53;5.90;;;2.90;;
41043;SDS011;51680;49.806;18.774;2023-07-13T12:01:57;6.53;;;2.80;;
41043;SDS011;51680;49.806;18.774;2023-07-13T12:05:00;4.07;;;2.35;;
41043;SDS011;51680;49.806;18.774;2023-07-13T12:08:24;6.63;;;2.50;;
41043;SDS011;51680;49.806;18.774;2023-07-13T12:11:27;4.03;;;2.33;;
41043;SDS011;51680;49.806;18.774;2023-07-13T12:14:29;6.85;;;2.80;;
41043;SDS011;51680;49.806;18.774;2023-07-13T12:17:34;4.68;;;2.53;;
41043;SDS011;51680;49.806;18.774;2023-07-13T12:20:37;5.85;;;2.70;;
41043;SDS011;51680;49.806;18.774;2023-07-13T12:23:42;7.00;;;2.30;;
41043;SDS011;51680;49.806;18.774;2023-07-13T12:26:49;5.63;;;1.80;;
41043;SDS011;51680;49.806;18.774;2023-07-13T12:29:56;3.20;;;2.10;;
41043;SDS011;51680;49.806;18.774;2023-07-13T12:33:01;4.45;;;2.30;;
41043;SDS011;51680;49.806;18.774;2023-07-13T12:36:08;7.55;;;2.78;;
41043;SDS011;51680;49.806;18.774;2023-07-13T12:39:15;7.72;;;3.03;;
41043;SDS011;51680;49.806;18.774;2023-07-13T12:42:21;2.97;;;2.17;;
41043;SDS011;51680;49.806;18.774;2023-07-13T12:45:27;3.88;;;2.47;;
41043;SDS011;51680;49.806;18.774;2023-07-13T12:48:29;6.25;;;2.08;;
41043;SDS011;51680;49.806;18.774;2023-07-13T12:51:31;4.50;;;2.40;;
41043;SDS011;51680;49.806;18.774;2023-07-13T12:54:34;5.88;;;2.40;;
41043;SDS011;51680;49.806;18.774;2023-07-13T12:57:41;4.63;;;2.20;;
41043;SDS011;51680;49.806;18.774;2023-07-13T13:00:50;5.47;;;2.60;;
41043;SDS011;51680;49.806;18.774;2023-07-13T13:03:53;6.45;;;2.47;;
41043;SDS011;51680;49.806;18.774;2023-07-13T13:07:03;4.43;;;2.23;;
41043;SDS011;51680;49.806;18.774;2023-07-13T13:10:12;3.57;;;2.13;;
41043;SDS011;51680;49.806;18.774;2023-07-13T13:13:15;3.22;;;2.20;;
41043;SDS011;51680;49.806;18.774;2023-07-13T13:16:18;3.42;;;2.08;;
41043;SDS011;51680;49.806;18.774;2023-07-13T13:19:23;5.10;;;1.92;;
41043;SDS011;51680;49.806;18.774;2023-07-13T13:22:26;3.90;;;1.85;;
41043;SDS011;51680;49.806;18.774;2023-07-13T13:25:29;2.25;;;1.45;;
41043;SDS011;51680;49.806;18.774;2023-07-13T13:28:31;3.53;;;1.73;;
41043;SDS011;51680;49.806;18.774;2023-07-13T13:31:33;3.78;;;2.10;;
41043;SDS011;51680;49.806;18.774;2023-07-13T13:34:35;2.95;;;2.00;;
41043;SDS011;51680;49.806;18.774;2023-07-13T13:37:37;3.28;;;1.73;;
41043;SDS011;51680;49.806;18.774;2023-07-13T13:40:40;4.50;;;2.20;;
41043;SDS011;51680;49.806;18.774;2023-07-13T13:43:43;4.38;;;1.75;;
41043;SDS011;51680;49.806;18.774;2023-07-13T13:46:46;3.03;;;1.73;;
41043;SDS011;51680;49.806;18.774;2023-07-13T13:49:49;6.82;;;2.50;;
41043;SDS011;51680;49.806;18.774;2023-07-13T13:52:51;3.97;;;2.03;;
41043;SDS011;51680;49.806;18.774;2023-07-13T13:55:54;5.28;;;2.10;;
41043;SDS011;51680;49.806;18.774;2023-07-13T13:58:56;3.47;;;1.93;;
41043;SDS011;51680;49.806;18.774;2023-07-13T14:01:58;4.25;;;1.83;;
41043;SDS011;51680;49.806;18.774;2023-07-13T14:05:01;3.38;;;1.83;;
41043;SDS011;51680;49.806;18.774;2023-07-13T14:08:08;5.70;;;2.20;;
41043;SDS011;51680;49.806;18.774;2023-07-13T14:11:16;4.18;;;2.20;;
41043;SDS011;51680;49.806;18.774;2023-07-13T14:14:22;4.32;;;2.50;;
41043;SDS011;51680;49.806;18.774;2023-07-13T14:17:26;11.55;;;2.25;;
41043;SDS011;51680;49.806;18.774;2023-07-13T14:20:29;6.25;;;2.25;;
41043;SDS011;51680;49.806;18.774;2023-07-13T14:23:31;5.05;;;2.30;;
41043;SDS011;51680;49.806;18.774;2023-07-13T14:26:35;6.15;;;2.65;;
41043;SDS011;51680;49.806;18.774;2023-07-13T14:29:57;6.65;;;2.80;;
41043;SDS011;51680;49.806;18.774;2023-07-13T14:32:59;5.88;;;2.50;;
41043;SDS011;51680;49.806;18.774;2023-07-13T14:36:01;4.55;;;2.25;;
41043;SDS011;51680;49.806;18.774;2023-07-13T14:39:08;5.20;;;2.88;;
41043;SDS011;51680;49.806;18.774;2023-07-13T14:42:14;4.63;;;2.97;;
41043;SDS011;51680;49.806;18.774;2023-07-13T14:45:17;4.07;;;2.90;;
41043;SDS011;51680;49.806;18.774;2023-07-13T14:48:21;5.10;;;2.97;;
41043;SDS011;51680;49.806;18.774;2023-07-13T14:51:24;7.28;;;2.80;;
41043;SDS011;51680;49.806;18.774;2023-07-13T14:54:26;4.75;;;2.90;;
41043;SDS011;51680;49.806;18.774;2023-07-13T14:57:29;4.63;;;3.10;;
41043;SDS011;51680;49.806;18.774;2023-07-13T15:00:50;5.18;;;3.25;;
41043;SDS011;51680;49.806;18.774;2023-07-13T15:03:55;5.72;;;3.05;;
41043;SDS011;51680;49.806;18.774;2023-07-13T15:06:59;5.57;;;2.90;;
41043;SDS011;51680;49.806;18.774;2023-07-13T15:10:04;4.25;;;2.80;;
41043;SDS011;51680;49.806;18.774;2023-07-13T15:13:16;5.47;;;3.35;;
41043;SDS011;51680;49.806;18.774;2023-07-13T15:16:21;7.38;;;3.03;;
41043;SDS011;51680;49.806;18.774;2023-07-13T15:19:24;5.68;;;2.90;;
41043;SDS011;51680;49.806;18.774;2023-07-13T15:22:27;8.25;;;2.53;;
41043;SDS011;51680;49.806;18.774;2023-07-13T15:25:30;4.20;;;2.50;;
41043;SDS011;51680;49.806;18.774;2023-07-13T15:28:35;3.08;;;2.25;;
41043;SDS011;51680;49.806;18.774;2023-07-13T15:31:36;5.30;;;2.57;;
41043;SDS011;51680;49.806;18.774;2023-07-13T15:34:39;6.32;;;2.67;;
41043;SDS011;51680;49.806;18.774;2023-07-13T15:37:42;3.70;;;2.10;;
41043;SDS011;51680;49.806;18.774;2023-07-13T15:40:43;4.53;;;2.30;;
41043;SDS011;51680;49.806;18.774;2023-07-13T15:43:47;5.30;;;2.42;;
41043;SDS011;51680;49.806;18.774;2023-07-13T15:46:49;5.28;;;2.53;;
41043;SDS011;51680;49.806;18.774;2023-07-13T15:49:51;5.03;;;2.22;;
41043;SDS011;51680;49.806;18.774;2023-07-13T15:52:53;6.32;;;2.70;;
41043;SDS011;51680;49.806;18.774;2023-07-13T15:55:56;5.72;;;2.70;;
41043;SDS011;51680;49.806;18.774;2023-07-13T15:59:00;4.25;;;2.33;;
41043;SDS011;51680;49.806;18.774;2023-07-13T16:02:08;5.95;;;3.33;;
41043;SDS011;51680;49.806;18.774;2023-07-13T16:05:13;6.18;;;3.83;;
41043;SDS011;51680;49.806;18.774;2023-07-13T16:08:18;3.90;;;2.60;;
41043;SDS011;51680;49.806;18.774;2023-07-13T16:11:24;4.95;;;2.40;;
41043;SDS011;51680;49.806;18.774;2023-07-13T16:14:29;7.45;;;3.03;;
41043;SDS011;51680;49.806;18.774;2023-07-13T16:17:30;3.50;;;2.37;;
41043;SDS011;51680;49.806;18.774;2023-07-13T16:20:32;5.47;;;2.72;;
41043;SDS011;51680;49.806;18.774;2023-07-13T16:23:34;4.70;;;2.80;;
41043;SDS011;51680;49.806;18.774;2023-07-13T16:26:37;4.45;;;2.60;;
41043;SDS011;51680;49.806;18.774;2023-07-13T16:29:43;6.63;;;2.90;;
41043;SDS011;51680;49.806;18.774;2023-07-13T16:32:45;5.07;;;2.43;;
41043;SDS011;51680;49.806;18.774;2023-07-13T16:35:47;6.80;;;2.63;;
41043;SDS011;51680;49.806;18.774;2023-07-13T16:38:49;4.82;;;2.45;;
41043;SDS011;51680;49.806;18.774;2023-07-13T16:41:51;7.32;;;2.85;;
41043;SDS011;51680;49.806;18.774;2023-07-13T16:44:56;2.92;;;2.28;;
41043;SDS011;51680;49.806;18.774;2023-07-13T16:47:58;4.30;;;2.42;;
41043;SDS011;51680;49.806;18.774;2023-07-13T16:51:00;4.10;;;2.70;;
41043;SDS011;51680;49.806;18.774;2023-07-13T16:54:07;3.97;;;2.38;;
41043;SDS011;51680;49.806;18.774;2023-07-13T16:57:12;4.47;;;2.40;;
41043;SDS011;51680;49.806;18.774;2023-07-13T17:00:18;6.15;;;2.70;;
41043;SDS011;51680;49.806;18.774;2023-07-13T17:03:27;4.88;;;2.20;;
41043;SDS011;51680;49.806;18.774;2023-07-13T17:06:29;4.00;;;2.70;;
41043;SDS011;51680;49.806;18.774;2023-07-13T17:09:31;5.22;;;2.38;;
41043;SDS011;51680;49.806;18.774;2023-07-13T17:12:33;3.53;;;2.38;;
41043;SDS011;51680;49.806;18.774;2023-07-13T17:15:36;7.03;;;2.33;;
41043;SDS011;51680;49.806;18.774;2023-07-13T17:18:39;4.85;;;2.40;;
41043;SDS011;51680;49.806;18.774;2023-07-13T17:21:41;5.15;;;2.55;;
41043;SDS011;51680;49.806;18.774;2023-07-13T17:24:43;5.55;;;2.67;;
41043;SDS011;51680;49.806;18.774;2023-07-13T17:27:46;5.65;;;2.63;;
41043;SDS011;51680;49.806;18.774;2023-07-13T17:30:50;5.60;;;2.28;;
41043;SDS011;51680;49.806;18.774;2023-07-13T17:33:53;4.30;;;2.70;;
41043;SDS011;51680;49.806;18.774;2023-07-13T17:36:56;3.70;;;2.77;;
41043;SDS011;51680;49.806;18.774;2023-07-13T17:39:59;6.43;;;2.75;;
41043;SDS011;51680;49.806;18.774;2023-07-13T17:43:01;6.35;;;2.53;;
41043;SDS011;51680;49.806;18.774;2023-07-13T17:46:08;4.93;;;2.58;;
41043;SDS011;51680;49.806;18.774;2023-07-13T17:49:15;4.57;;;2.30;;
41043;SDS011;51680;49.806;18.774;2023-07-13T17:52:20;4.97;;;2.25;;
41043;SDS011;51680;49.806;18.774;2023-07-13T17:55:24;8.02;;;2.45;;
41043;SDS011;51680;49.806;18.774;2023-07-13T17:58:26;6.10;;;2.40;;
41043;SDS011;51680;49.806;18.774;2023-07-13T18:01:29;5.60;;;2.65;;
41043;SDS011;51680;49.806;18.774;2023-07-13T18:04:33;3.50;;;2.45;;
41043;SDS011;51680;49.806;18.774;2023-07-13T18:07:37;3.60;;;2.30;;
41043;SDS011;51680;49.806;18.774;2023-07-13T18:10:40;3.47;;;2.33;;
41043;SDS011;51680;49.806;18.774;2023-07-13T18:13:42;4.70;;;2.45;;
41043;SDS011;51680;49.806;18.774;2023-07-13T18:16:47;4.97;;;2.70;;
41043;SDS011;51680;49.806;18.774;2023-07-13T18:19:54;3.75;;;2.35;;